Time;durP1;ratioP1;P1;durP2;ratioP2;P2;SDS_P1;SDS_P2;PMS_P1;PMS_P2;Temp;Humidity;BMP_temperature;BMP_pressure;BME280_temperature;BME280_humidity;BME280_pressure;Samples;Min_cycle;Max_cycle;Signal;HPM_P1;HPM_P2
2021/03/15 00:00:17;;;;;;;15.35;2.92;;;;;;;;;;1971876;30;20447;-89
2021/03/15 00:01:19;;;;;;;9.85;2.75;;;;;;;;;;1978725;30;20509;-88
2021/03/15 00:02:21;;;;;;;13.32;3.60;;;;;;;;;;1979386;29;20847;-89
2021/03/15 00:03:26;;;;;;;13.35;3.85;;;;;;;;;;1971378;30;20996;-89
2021/03/15 00:04:33;;;;;;;13.18;3.70;;;;;;;;;;1966449;30;20438;-89
2021/03/15 00:05:38;;;;;;;9.68;2.92;;;;;;;;;;1972337;30;20436;-89
2021/03/15 00:06:43;;;;;;;13.32;3.78;;;;;;;;;;1965878;30;20426;-89
2021/03/15 00:07:46;;;;;;;13.73;4.32;;;;;;;;;;1972587;30;20798;-88
2021/03/15 00:08:47;;;;;;;11.98;3.83;;;;;;;;;;1978912;29;20446;-90
2021/03/15 00:09:52;;;;;;;11.18;4.28;;;;;;;;;;1964367;30;20426;-88
2021/03/15 00:10:58;;;;;;;13.90;4.43;;;;;;;;;;1966389;30;20517;-89
2021/03/15 00:12:03;;;;;;;13.05;4.55;;;;;;;;;;1980963;29;20800;-88
2021/03/15 00:13:08;;;;;;;13.35;4.10;;;;;;;;;;1986959;29;20421;-89
2021/03/15 00:14:12;;;;;;;8.10;3.70;;;;;;;;;;1981945;29;20441;-88
2021/03/15 00:15:19;;;;;;;12.98;4.28;;;;;;;;;;1975604;30;20493;-88
2021/03/15 00:16:24;;;;;;;12.38;3.97;;;;;;;;;;1982892;29;20499;-88
2021/03/15 00:17:25;;;;;;;11.32;3.15;;;;;;;;;;1974820;30;20470;-87
2021/03/15 00:18:30;;;;;;;12.80;4.50;;;;;;;;;;1976810;29;20436;-88
2021/03/15 00:19:35;;;;;;;18.88;3.63;;;;;;;;;;1974215;30;20826;-88
2021/03/15 00:20:36;;;;;;;17.55;4.50;;;;;;;;;;1968266;30;20437;-88
2021/03/15 00:21:41;;;;;;;17.13;3.72;;;;;;;;;;1977718;29;20432;-88
2021/03/15 00:22:46;;;;;;;15.38;4.25;;;;;;;;;;1984702;29;20447;-87
2021/03/15 00:23:50;;;;;;;13.88;3.70;;;;;;;;;;1987130;29;21012;-87
2021/03/15 00:24:52;;;;;;;14.90;3.67;;;;;;;;;;1993137;29;20433;-91
2021/03/15 00:25:56;;;;;;;11.15;3.47;;;;;;;;;;1987769;30;20486;-88
2021/03/15 00:27:00;;;;;;;14.57;4.00;;;;;;;;;;1974628;30;20492;-89
2021/03/15 00:28:04;;;;;;;16.80;4.43;;;;;;;;;;1975279;30;20520;-86
2021/03/15 00:29:09;;;;;;;17.73;4.80;;;;;;;;;;1973848;30;20413;-87
2021/03/15 00:30:14;;;;;;;14.65;3.22;;;;;;;;;;1981671;30;20441;-88
2021/03/15 00:31:18;;;;;;;14.80;3.40;;;;;;;;;;1996365;29;20419;-88
2021/03/15 00:32:24;;;;;;;17.77;4.13;;;;;;;;;;1995278;29;20471;-89
2021/03/15 00:33:26;;;;;;;13.88;3.90;;;;;;;;;;1996168;29;20432;-87
2021/03/15 00:34:37;;;;;;;15.68;4.40;;;;;;;;;;1985332;30;20461;-89
2021/03/15 00:35:40;;;;;;;16.95;4.28;;;;;;;;;;1986845;29;20419;-88
2021/03/15 00:36:43;;;;;;;19.52;4.32;;;;;;;;;;1977736;30;20464;-89
2021/03/15 00:37:49;;;;;;;16.63;4.32;;;;;;;;;;1969939;30;20434;-89
2021/03/15 00:38:53;;;;;;;19.92;5.10;;;;;;;;;;1959121;30;20921;-88
2021/03/15 00:39:57;;;;;;;16.27;3.88;;;;;;;;;;1969468;29;20513;-88
2021/03/15 00:41:02;;;;;;;17.20;4.10;;;;;;;;;;1969612;30;20507;-91
2021/03/15 00:42:06;;;;;;;19.80;3.70;;;;;;;;;;1977050;30;20504;-88
2021/03/15 00:43:11;;;;;;;21.80;4.07;;;;;;;;;;1977408;30;20439;-87
2021/03/15 00:44:16;;;;;;;17.20;3.67;;;;;;;;;;1984355;29;20443;-87
2021/03/15 00:45:23;;;;;;;17.80;3.58;;;;;;;;;;1989461;29;20430;-87
2021/03/15 00:46:28;;;;;;;19.75;3.33;;;;;;;;;;1983011;30;20456;-87
2021/03/15 00:47:29;;;;;;;11.02;3.00;;;;;;;;;;1980159;30;20520;-87
2021/03/15 00:48:31;;;;;;;13.68;3.63;;;;;;;;;;1979985;30;20440;-87
2021/03/15 00:49:34;;;;;;;21.92;4.03;;;;;;;;;;1988058;29;20498;-86
2021/03/15 00:50:42;;;;;;;18.63;4.13;;;;;;;;;;1973379;30;20522;-87
2021/03/15 00:51:47;;;;;;;16.27;3.97;;;;;;;;;;1966178;30;20431;-86
2021/03/15 00:52:51;;;;;;;14.70;3.75;;;;;;;;;;1977696;30;20468;-89
2021/03/15 00:53:55;;;;;;;20.30;3.95;;;;;;;;;;1969652;30;20433;-87
2021/03/15 00:54:59;;;;;;;19.98;5.20;;;;;;;;;;1963813;30;20481;-89
2021/03/15 00:56:01;;;;;;;16.60;3.65;;;;;;;;;;1972085;30;20449;-88
2021/03/15 00:57:06;;;;;;;16.73;3.50;;;;;;;;;;1971591;30;20900;-89
2021/03/15 00:58:12;;;;;;;15.45;3.60;;;;;;;;;;1970705;30;20490;-88
2021/03/15 00:59:13;;;;;;;18.63;3.60;;;;;;;;;;1969796;30;20472;-88
2021/03/15 01:00:22;;;;;;;16.15;3.10;;;;;;;;;;1977633;29;20484;-87
2021/03/15 01:01:27;;;;;;;20.60;3.80;;;;;;;;;;1991290;29;20425;-88
2021/03/15 01:02:32;;;;;;;16.60;3.65;;;;;;;;;;1987431;29;20434;-88
2021/03/15 01:03:33;;;;;;;15.60;2.92;;;;;;;;;;1989252;30;20434;-86
2021/03/15 01:04:37;;;;;;;17.48;3.25;;;;;;;;;;1981641;30;20486;-88
2021/03/15 01:05:46;;;;;;;11.32;3.00;;;;;;;;;;1971854;30;21014;-87
2021/03/15 01:06:51;;;;;;;20.97;3.60;;;;;;;;;;1981780;29;20443;-87
2021/03/15 01:07:56;;;;;;;17.85;2.92;;;;;;;;;;1980572;30;20427;-88
2021/03/15 01:09:00;;;;;;;21.27;3.83;;;;;;;;;;1973751;30;20425;-88
2021/03/15 01:10:07;;;;;;;18.00;2.97;;;;;;;;;;1976359;30;20431;-86
2021/03/15 01:11:09;;;;;;;17.65;3.28;;;;;;;;;;1973594;30;20410;-89
2021/03/15 01:12:13;;;;;;;14.98;3.42;;;;;;;;;;1978176;30;20424;-87
2021/03/15 01:13:18;;;;;;;19.85;3.78;;;;;;;;;;1976277;30;20436;-88
2021/03/15 01:14:22;;;;;;;11.07;2.58;;;;;;;;;;1974094;30;20444;-88
2021/03/15 01:15:26;;;;;;;11.52;2.28;;;;;;;;;;1987208;29;20440;-88
2021/03/15 01:16:35;;;;;;;13.43;2.80;;;;;;;;;;1988476;29;21001;-89
2021/03/15 01:17:40;;;;;;;15.50;2.80;;;;;;;;;;1987738;29;20935;-89
2021/03/15 01:18:42;;;;;;;15.93;3.58;;;;;;;;;;1987492;29;20954;-89
2021/03/15 01:19:43;;;;;;;14.55;3.10;;;;;;;;;;1980026;30;20509;-89
2021/03/15 01:20:45;;;;;;;14.73;2.55;;;;;;;;;;1980162;29;20489;-89
2021/03/15 01:21:50;;;;;;;17.10;2.75;;;;;;;;;;1972492;30;20882;-90
2021/03/15 01:22:55;;;;;;;16.85;3.03;;;;;;;;;;1965903;30;20430;-89
2021/03/15 01:24:00;;;;;;;13.95;2.83;;;;;;;;;;1973471;30;20758;-89
2021/03/15 01:25:03;;;;;;;20.63;3.42;;;;;;;;;;1979580;30;20418;-88
2021/03/15 01:26:05;;;;;;;10.15;2.97;;;;;;;;;;1973043;30;20451;-88
2021/03/15 01:27:09;;;;;;;15.55;2.70;;;;;;;;;;1979887;30;20458;-88
2021/03/15 01:28:15;;;;;;;10.52;2.28;;;;;;;;;;1979261;29;20455;-88
2021/03/15 01:29:19;;;;;;;14.18;3.53;;;;;;;;;;1989080;29;20489;-88
2021/03/15 01:30:24;;;;;;;13.43;2.88;;;;;;;;;;1990016;29;20433;-89
2021/03/15 01:31:28;;;;;;;14.00;2.90;;;;;;;;;;1988738;29;20421;-88
2021/03/15 01:32:33;;;;;;;13.43;3.10;;;;;;;;;;1979741;30;20426;-89
2021/03/15 01:33:37;;;;;;;12.95;2.97;;;;;;;;;;1973124;30;20440;-89
2021/03/15 01:34:43;;;;;;;13.37;2.70;;;;;;;;;;1980123;30;20442;-89
2021/03/15 01:35:49;;;;;;;13.63;2.95;;;;;;;;;;1987005;29;20847;-89
2021/03/15 01:36:53;;;;;;;11.40;2.20;;;;;;;;;;1980144;30;20780;-89
2021/03/15 01:37:55;;;;;;;13.32;2.30;;;;;;;;;;1972635;30;20945;-89
2021/03/15 01:38:58;;;;;;;14.10;2.65;;;;;;;;;;1968067;30;20433;-90
2021/03/15 01:40:07;;;;;;;14.18;2.75;;;;;;;;;;1971804;30;20771;-90
2021/03/15 01:41:11;;;;;;;18.13;3.33;;;;;;;;;;1983120;30;20475;-89
2021/03/15 01:42:16;;;;;;;14.02;2.78;;;;;;;;;;1981953;30;20454;-89
2021/03/15 01:43:18;;;;;;;13.70;2.80;;;;;;;;;;1979767;30;20473;-89
2021/03/15 01:44:22;;;;;;;14.52;3.08;;;;;;;;;;1979801;30;20438;-90
2021/03/15 01:45:23;;;;;;;12.52;2.72;;;;;;;;;;1980013;30;20530;-89
2021/03/15 01:46:25;;;;;;;11.38;2.22;;;;;;;;;;1972440;30;20435;-90
2021/03/15 01:47:30;;;;;;;17.42;3.40;;;;;;;;;;1964851;30;20531;-90
2021/03/15 01:48:32;;;;;;;8.13;2.30;;;;;;;;;;1965439;30;20543;-89
2021/03/15 01:49:36;;;;;;;11.95;2.13;;;;;;;;;;1972875;30;20435;-89
2021/03/15 01:50:40;;;;;;;14.82;2.58;;;;;;;;;;1971752;30;20448;-89
2021/03/15 01:51:46;;;;;;;13.52;2.60;;;;;;;;;;1958537;30;20504;-89
2021/03/15 01:52:54;;;;;;;16.65;2.53;;;;;;;;;;1958718;30;20430;-89
2021/03/15 01:53:56;;;;;;;12.68;2.60;;;;;;;;;;1973306;30;20549;-88
2021/03/15 01:54:58;;;;;;;12.98;2.63;;;;;;;;;;1987123;29;20468;-89
2021/03/15 01:55:59;;;;;;;11.07;2.53;;;;;;;;;;1979637;30;20418;-88
2021/03/15 01:57:01;;;;;;;12.30;1.95;;;;;;;;;;1979742;30;20426;-88
2021/03/15 01:58:05;;;;;;;9.70;1.92;;;;;;;;;;1979324;30;20442;-88
2021/03/15 01:59:08;;;;;;;10.70;1.90;;;;;;;;;;1979777;30;20994;-88
2021/03/15 02:00:14;;;;;;;11.13;1.90;;;;;;;;;;1987158;29;20429;-87
2021/03/15 02:01:15;;;;;;;14.65;2.88;;;;;;;;;;1987012;29;20523;-89
2021/03/15 02:02:19;;;;;;;14.75;2.80;;;;;;;;;;1964874;30;20439;-88
2021/03/15 02:03:21;;;;;;;13.18;2.42;;;;;;;;;;1966082;30;20484;-91
2021/03/15 02:04:26;;;;;;;11.48;2.10;;;;;;;;;;1980656;29;20423;-90
2021/03/15 02:05:29;;;;;;;12.80;2.38;;;;;;;;;;1985894;29;20432;-91
2021/03/15 02:06:30;;;;;;;9.38;2.40;;;;;;;;;;1993278;29;20429;-89
2021/03/15 02:07:32;;;;;;;14.07;3.03;;;;;;;;;;1993978;29;20510;-89
2021/03/15 02:08:34;;;;;;;18.88;2.80;;;;;;;;;;1993115;29;20770;-89
2021/03/15 02:09:39;;;;;;;12.90;2.00;;;;;;;;;;1979598;30;20452;-90
2021/03/15 02:10:42;;;;;;;14.93;2.70;;;;;;;;;;1980915;29;20459;-89
2021/03/15 02:12:05;;;;;;;10.68;2.17;;;;;;;;;;1973242;30;20458;-89
2021/03/15 02:13:33;;;;;;;18.77;3.00;;;;;;;;;;1975371;29;20467;-89
2021/03/15 02:14:53;;;;;;;17.95;3.03;;;;;;;;;;1980572;30;20540;-89
2021/03/15 02:16:02;;;;;;;12.85;2.25;;;;;;;;;;1990038;29;20432;-89
2021/03/15 02:17:15;;;;;;;11.60;2.17;;;;;;;;;;1987034;29;20429;-89
2021/03/15 02:18:33;;;;;;;18.48;3.95;;;;;;;;;;1987657;29;20478;-89
2021/03/15 02:19:57;;;;;;;10.98;2.17;;;;;;;;;;1987739;29;21077;-88
2021/03/15 02:21:33;;;;;;;10.77;2.10;;;;;;;;;;1988548;29;20525;-89
2021/03/15 02:22:54;;;;;;;11.52;2.35;;;;;;;;;;1985695;29;20434;-88
2021/03/15 02:24:07;;;;;;;10.95;2.65;;;;;;;;;;1989199;29;21014;-88
2021/03/15 02:25:27;;;;;;;10.68;1.85;;;;;;;;;;1987563;29;20417;-88
2021/03/15 02:26:56;;;;;;;17.88;3.45;;;;;;;;;;1986870;29;20489;-88
2021/03/15 02:28:22;;;;;;;10.85;2.30;;;;;;;;;;1986462;29;20449;-88
2021/03/15 02:29:39;;;;;;;14.93;2.38;;;;;;;;;;1993392;29;20886;-87
2021/03/15 02:30:51;;;;;;;14.10;3.03;;;;;;;;;;1976890;30;20509;-88
2021/03/15 02:32:30;;;;;;;11.02;2.78;;;;;;;;;;1972764;30;20507;-89
2021/03/15 02:34:06;;;;;;;11.07;1.77;;;;;;;;;;1985526;30;20473;-86
2021/03/15 02:35:34;;;;;;;11.75;2.90;;;;;;;;;;1977974;30;20607;-88
2021/03/15 02:36:41;;;;;;;10.68;2.22;;;;;;;;;;1978368;30;20423;-88
2021/03/15 02:37:47;;;;;;;11.43;2.25;;;;;;;;;;1973062;30;20807;-87
2021/03/15 02:38:51;;;;;;;16.20;2.45;;;;;;;;;;1979317;30;20924;-87
2021/03/15 02:39:56;;;;;;;16.05;2.90;;;;;;;;;;1979133;30;20426;-90
2021/03/15 02:41:02;;;;;;;12.60;2.67;;;;;;;;;;1979607;30;20483;-88
2021/03/15 02:42:09;;;;;;;13.25;2.97;;;;;;;;;;1979038;30;20434;-88
2021/03/15 02:43:16;;;;;;;15.35;3.10;;;;;;;;;;1971890;30;20464;-88
2021/03/15 02:44:21;;;;;;;11.77;2.70;;;;;;;;;;1979115;30;20438;-88
2021/03/15 02:45:24;;;;;;;16.20;2.50;;;;;;;;;;1971870;30;20439;-89
2021/03/15 02:46:28;;;;;;;12.23;2.67;;;;;;;;;;1964602;30;20859;-88
2021/03/15 02:47:37;;;;;;;16.35;2.75;;;;;;;;;;1965447;30;20415;-89
2021/03/15 02:48:41;;;;;;;23.05;3.38;;;;;;;;;;1973219;30;20443;-89
2021/03/15 02:49:44;;;;;;;10.25;2.60;;;;;;;;;;1983014;29;20468;-89
2021/03/15 02:50:46;;;;;;;9.15;2.40;;;;;;;;;;1979255;30;20511;-89
2021/03/15 02:51:50;;;;;;;17.55;2.60;;;;;;;;;;1979340;30;20468;-90
2021/03/15 02:52:55;;;;;;;14.57;2.80;;;;;;;;;;1986933;29;20516;-89
2021/03/15 02:53:57;;;;;;;12.63;2.78;;;;;;;;;;1986121;29;20798;-89
2021/03/15 02:55:04;;;;;;;12.63;2.30;;;;;;;;;;1985799;29;20546;-89
2021/03/15 02:56:13;;;;;;;10.68;1.88;;;;;;;;;;1992889;29;20420;-89
2021/03/15 02:57:18;;;;;;;10.40;2.60;;;;;;;;;;1988711;30;20418;-88
2021/03/15 02:58:23;;;;;;;11.48;2.30;;;;;;;;;;1988380;29;20414;-89
2021/03/15 02:59:29;;;;;;;11.15;2.20;;;;;;;;;;1986001;29;20502;-88
2021/03/15 03:00:32;;;;;;;16.30;2.50;;;;;;;;;;1986873;29;20517;-89
2021/03/15 03:01:36;;;;;;;20.17;2.28;;;;;;;;;;1992536;29;20429;-89
2021/03/15 03:02:42;;;;;;;13.15;2.85;;;;;;;;;;1979767;30;20427;-88
2021/03/15 03:03:44;;;;;;;13.90;2.70;;;;;;;;;;1979252;30;20446;-89
2021/03/15 03:04:49;;;;;;;11.25;2.45;;;;;;;;;;1979257;30;20415;-90
2021/03/15 03:05:51;;;;;;;11.90;2.42;;;;;;;;;;1972278;30;20435;-88
2021/03/15 03:06:55;;;;;;;11.35;2.90;;;;;;;;;;1979555;29;20427;-88
2021/03/15 03:08:00;;;;;;;11.77;2.90;;;;;;;;;;1984375;29;20498;-88
2021/03/15 03:09:05;;;;;;;12.50;2.90;;;;;;;;;;1979949;30;20435;-88
2021/03/15 03:10:11;;;;;;;16.65;3.47;;;;;;;;;;1982755;29;20434;-88
2021/03/15 03:11:14;;;;;;;14.65;3.20;;;;;;;;;;1980967;30;20487;-89
2021/03/15 03:12:18;;;;;;;14.93;3.22;;;;;;;;;;1986936;29;20437;-88
2021/03/15 03:13:21;;;;;;;17.52;3.13;;;;;;;;;;1985747;29;20990;-88
2021/03/15 03:14:27;;;;;;;13.45;2.58;;;;;;;;;;1980091;29;20438;-88
2021/03/15 03:15:33;;;;;;;15.15;3.22;;;;;;;;;;1986730;29;20417;-88
2021/03/15 03:16:39;;;;;;;17.45;3.90;;;;;;;;;;1987228;29;20441;-88
2021/03/15 03:17:43;;;;;;;11.13;3.00;;;;;;;;;;1986073;29;20440;-89
2021/03/15 03:18:48;;;;;;;14.65;2.72;;;;;;;;;;1980096;29;20462;-88
2021/03/15 03:19:51;;;;;;;11.98;3.50;;;;;;;;;;1978467;29;20792;-88
2021/03/15 03:20:57;;;;;;;14.60;3.58;;;;;;;;;;1988395;29;20472;-88
2021/03/15 03:22:00;;;;;;;18.25;3.60;;;;;;;;;;1991312;29;20437;-88
2021/03/15 03:23:04;;;;;;;18.75;3.42;;;;;;;;;;1985869;29;20953;-88
2021/03/15 03:24:08;;;;;;;18.83;3.65;;;;;;;;;;1989108;29;20506;-88
2021/03/15 03:25:14;;;;;;;12.40;2.60;;;;;;;;;;1982098;29;20416;-88
2021/03/15 03:26:16;;;;;;;13.02;2.40;;;;;;;;;;1988998;29;20507;-88
2021/03/15 03:27:20;;;;;;;15.88;3.63;;;;;;;;;;1989287;29;20427;-88
2021/03/15 03:28:26;;;;;;;17.15;3.38;;;;;;;;;;1983034;29;20408;-88
2021/03/15 03:29:27;;;;;;;24.38;3.83;;;;;;;;;;1983030;30;20419;-88
2021/03/15 03:30:31;;;;;;;17.40;3.60;;;;;;;;;;1987773;29;20458;-88
2021/03/15 03:31:36;;;;;;;13.57;2.92;;;;;;;;;;1994620;29;20421;-88
2021/03/15 03:32:41;;;;;;;10.75;2.70;;;;;;;;;;1992764;29;21005;-88
2021/03/15 03:33:49;;;;;;;14.63;4.10;;;;;;;;;;1984519;30;20453;-87
2021/03/15 03:34:51;;;;;;;16.60;3.95;;;;;;;;;;1984957;29;20446;-88
2021/03/15 03:35:55;;;;;;;13.43;2.75;;;;;;;;;;1990747;29;20856;-88
2021/03/15 03:37:12;;;;;;;17.60;3.58;;;;;;;;;;1989141;29;20914;-89
2021/03/15 03:38:14;;;;;;;14.30;4.20;;;;;;;;;;1972149;30;20424;-89
2021/03/15 03:39:17;;;;;;;10.90;2.70;;;;;;;;;;1972537;30;20794;-89
2021/03/15 03:40:20;;;;;;;19.25;3.30;;;;;;;;;;1979727;30;20425;-89
2021/03/15 03:41:24;;;;;;;14.80;2.97;;;;;;;;;;1981087;29;20426;-88
2021/03/15 03:42:43;;;;;;;16.33;2.90;;;;;;;;;;1979120;30;20488;-88
2021/03/15 03:43:47;;;;;;;13.88;3.30;;;;;;;;;;1975446;30;20418;-88
2021/03/15 03:44:50;;;;;;;13.20;3.00;;;;;;;;;;1980469;29;20438;-88
2021/03/15 03:45:54;;;;;;;13.02;3.20;;;;;;;;;;1988712;29;20453;-87
2021/03/15 03:47:00;;;;;;;12.02;2.60;;;;;;;;;;1986415;29;20769;-87
2021/03/15 03:48:05;;;;;;;14.85;3.33;;;;;;;;;;1979018;30;20435;-88
2021/03/15 03:49:09;;;;;;;16.30;3.03;;;;;;;;;;1974660;30;20486;-88
2021/03/15 03:50:29;;;;;;;12.52;2.65;;;;;;;;;;1980727;30;20452;-89
2021/03/15 03:51:42;;;;;;;11.02;2.65;;;;;;;;;;1979847;29;20443;-88
2021/03/15 03:53:08;;;;;;;13.98;2.88;;;;;;;;;;1986796;29;20465;-88
2021/03/15 03:54:18;;;;;;;20.05;4.35;;;;;;;;;;1987039;29;20428;-88
2021/03/15 03:55:21;;;;;;;18.02;3.97;;;;;;;;;;1985630;29;20445;-89
2021/03/15 03:57:05;;;;;;;13.30;3.08;;;;;;;;;;1986712;29;20775;-89
2021/03/15 03:58:09;;;;;;;12.40;2.90;;;;;;;;;;1981439;29;20475;-89
2021/03/15 03:59:16;;;;;;;14.05;3.25;;;;;;;;;;1979302;30;20803;-88
2021/03/15 04:00:19;;;;;;;19.60;3.33;;;;;;;;;;1975349;30;20425;-89
2021/03/15 04:01:38;;;;;;;14.27;3.10;;;;;;;;;;1974329;30;20428;-88
2021/03/15 04:02:48;;;;;;;11.15;2.70;;;;;;;;;;1979732;30;20549;-88
2021/03/15 04:03:55;;;;;;;12.90;2.65;;;;;;;;;;1988642;29;20458;-88
2021/03/15 04:05:07;;;;;;;15.25;3.42;;;;;;;;;;1988921;29;20926;-88
2021/03/15 04:06:18;;;;;;;14.48;3.90;;;;;;;;;;1988833;29;20443;-88
2021/03/15 04:07:44;;;;;;;10.63;3.20;;;;;;;;;;1990663;29;20458;-88
2021/03/15 04:09:01;;;;;;;13.75;2.90;;;;;;;;;;1990503;29;20460;-88
2021/03/15 04:10:09;;;;;;;13.23;3.30;;;;;;;;;;1987859;29;20433;-90
2021/03/15 04:11:11;;;;;;;18.85;3.20;;;;;;;;;;1980713;30;20422;-89
2021/03/15 04:12:20;;;;;;;15.48;3.22;;;;;;;;;;1974443;30;20507;-88
2021/03/15 04:13:27;;;;;;;13.50;3.17;;;;;;;;;;1973081;30;20497;-89
2021/03/15 04:14:31;;;;;;;13.23;3.83;;;;;;;;;;1983219;29;20438;-87
2021/03/15 04:15:34;;;;;;;14.48;2.50;;;;;;;;;;1988529;30;20442;-87
2021/03/15 04:16:40;;;;;;;10.07;2.40;;;;;;;;;;1977972;30;20424;-86
2021/03/15 04:17:42;;;;;;;11.05;3.40;;;;;;;;;;1976516;30;20952;-88
2021/03/15 04:18:50;;;;;;;13.15;2.83;;;;;;;;;;1967132;30;20458;-88
2021/03/15 04:19:56;;;;;;;15.18;3.13;;;;;;;;;;1974108;29;20420;-88
2021/03/15 04:21:00;;;;;;;9.88;2.20;;;;;;;;;;1986707;29;20423;-86
2021/03/15 04:22:10;;;;;;;15.80;2.85;;;;;;;;;;1991291;29;20405;-86
2021/03/15 04:23:20;;;;;;;10.45;2.42;;;;;;;;;;1991101;29;20409;-87
2021/03/15 04:24:22;;;;;;;10.15;2.42;;;;;;;;;;1985983;29;20438;-87
2021/03/15 04:25:27;;;;;;;9.57;2.40;;;;;;;;;;1992472;29;20429;-87
2021/03/15 04:26:31;;;;;;;10.68;2.67;;;;;;;;;;1990501;29;20488;-89
2021/03/15 04:27:36;;;;;;;10.48;2.45;;;;;;;;;;1984253;29;20839;-88
2021/03/15 04:28:38;;;;;;;9.80;2.60;;;;;;;;;;1975203;30;20436;-89
2021/03/15 04:29:41;;;;;;;11.63;2.80;;;;;;;;;;1975166;30;20498;-88
2021/03/15 04:30:46;;;;;;;12.60;2.40;;;;;;;;;;1975396;30;20479;-88
2021/03/15 04:31:48;;;;;;;9.98;2.00;;;;;;;;;;1969680;30;20477;-88
2021/03/15 04:32:53;;;;;;;17.17;2.95;;;;;;;;;;1975531;30;20440;-89
2021/03/15 04:33:56;;;;;;;14.55;3.60;;;;;;;;;;1982109;29;20823;-89
2021/03/15 04:35:01;;;;;;;12.20;2.33;;;;;;;;;;1964381;30;20951;-88
2021/03/15 04:36:05;;;;;;;14.25;2.40;;;;;;;;;;1969307;30;20536;-88
2021/03/15 04:37:09;;;;;;;14.02;2.35;;;;;;;;;;1983073;30;20446;-88
2021/03/15 04:38:12;;;;;;;11.18;2.50;;;;;;;;;;1983315;29;20429;-88
2021/03/15 04:39:14;;;;;;;13.90;2.67;;;;;;;;;;1981915;30;20525;-88
2021/03/15 04:40:22;;;;;;;19.83;3.33;;;;;;;;;;1981281;30;20441;-88
2021/03/15 04:41:25;;;;;;;15.85;3.08;;;;;;;;;;1976736;30;20468;-90
2021/03/15 04:42:29;;;;;;;14.02;2.95;;;;;;;;;;1981283;29;20536;-89
2021/03/15 04:43:34;;;;;;;18.83;3.15;;;;;;;;;;1980466;30;20958;-88
2021/03/15 04:44:39;;;;;;;13.23;2.55;;;;;;;;;;1976004;30;20431;-89
2021/03/15 04:45:44;;;;;;;18.58;2.00;;;;;;;;;;1981123;30;20433;-89
2021/03/15 04:46:51;;;;;;;18.77;3.45;;;;;;;;;;1982345;29;20449;-88
2021/03/15 04:48:04;;;;;;;14.82;2.22;;;;;;;;;;1980225;30;20429;-88
2021/03/15 04:49:07;;;;;;;11.30;2.17;;;;;;;;;;1981004;30;20423;-87
2021/03/15 04:50:11;;;;;;;12.10;2.65;;;;;;;;;;1989770;29;20433;-87
2021/03/15 04:51:18;;;;;;;12.80;2.22;;;;;;;;;;1989082;29;21017;-87
2021/03/15 04:52:21;;;;;;;16.33;3.10;;;;;;;;;;1987925;29;20428;-86
2021/03/15 04:53:27;;;;;;;17.58;2.80;;;;;;;;;;1979863;30;20441;-88
2021/03/15 04:54:28;;;;;;;15.38;2.75;;;;;;;;;;1980554;30;20426;-87
2021/03/15 04:55:33;;;;;;;11.15;2.00;;;;;;;;;;1987518;29;20483;-88
2021/03/15 04:56:35;;;;;;;20.23;2.50;;;;;;;;;;1987797;29;20445;-87
2021/03/15 04:57:38;;;;;;;11.00;2.70;;;;;;;;;;1987176;29;20425;-89
2021/03/15 04:58:45;;;;;;;12.55;2.25;;;;;;;;;;1987430;29;21065;-88
2021/03/15 04:59:48;;;;;;;16.08;2.92;;;;;;;;;;1978837;30;20511;-89
2021/03/15 05:00:54;;;;;;;15.70;3.50;;;;;;;;;;1981042;29;20419;-89
2021/03/15 05:01:56;;;;;;;11.80;1.95;;;;;;;;;;1986876;29;20522;-90
2021/03/15 05:03:03;;;;;;;16.30;2.40;;;;;;;;;;1980035;30;20522;-89
2021/03/15 05:04:08;;;;;;;16.42;2.67;;;;;;;;;;1973616;30;20433;-89
2021/03/15 05:05:14;;;;;;;11.30;2.47;;;;;;;;;;1980606;29;20421;-89
2021/03/15 05:06:19;;;;;;;12.98;2.17;;;;;;;;;;1990449;29;20432;-88
2021/03/15 05:07:24;;;;;;;7.88;1.48;;;;;;;;;;1977661;30;20496;-88
2021/03/15 05:08:27;;;;;;;12.93;2.03;;;;;;;;;;1976228;30;20473;-88
2021/03/15 05:09:32;;;;;;;8.95;1.95;;;;;;;;;;1990643;29;20490;-89
2021/03/15 05:10:43;;;;;;;6.43;1.90;;;;;;;;;;1986957;29;20443;-89
2021/03/15 05:11:44;;;;;;;15.88;2.35;;;;;;;;;;1987061;29;20430;-89
2021/03/15 05:12:48;;;;;;;9.75;2.13;;;;;;;;;;1992335;29;20469;-88
2021/03/15 05:13:50;;;;;;;14.00;2.28;;;;;;;;;;1983517;30;20453;-88
2021/03/15 05:14:53;;;;;;;13.57;1.77;;;;;;;;;;1981431;29;20551;-89
2021/03/15 05:15:59;;;;;;;11.32;2.25;;;;;;;;;;1980989;30;20435;-89
2021/03/15 05:17:04;;;;;;;13.98;2.35;;;;;;;;;;1981218;29;20974;-90
2021/03/15 05:18:10;;;;;;;14.27;1.80;;;;;;;;;;1980206;30;20461;-89
2021/03/15 05:19:18;;;;;;;16.13;2.08;;;;;;;;;;1966311;30;20838;-89
2021/03/15 05:20:20;;;;;;;12.95;2.30;;;;;;;;;;1974437;29;20512;-89
2021/03/15 05:21:24;;;;;;;12.15;2.20;;;;;;;;;;1965445;30;20448;-89
2021/03/15 05:22:26;;;;;;;9.75;1.65;;;;;;;;;;1966174;30;20418;-89
2021/03/15 05:23:28;;;;;;;10.00;1.88;;;;;;;;;;1979801;30;20426;-88
2021/03/15 05:24:34;;;;;;;12.98;2.17;;;;;;;;;;1973501;29;20444;-88
2021/03/15 05:25:38;;;;;;;8.98;1.35;;;;;;;;;;1979478;29;21023;-89
2021/03/15 05:26:41;;;;;;;8.40;1.90;;;;;;;;;;1980675;29;20431;-89
2021/03/15 05:27:50;;;;;;;8.93;1.55;;;;;;;;;;1987413;29;20421;-88
2021/03/15 05:28:56;;;;;;;7.57;1.45;;;;;;;;;;1980553;29;20521;-90
2021/03/15 05:30:03;;;;;;;9.77;1.65;;;;;;;;;;1980408;30;20488;-89
2021/03/15 05:31:07;;;;;;;8.98;1.58;;;;;;;;;;1980748;29;20457;-89
2021/03/15 05:32:09;;;;;;;9.95;2.17;;;;;;;;;;1991702;29;20921;-89
2021/03/15 05:33:14;;;;;;;10.20;1.50;;;;;;;;;;1989039;29;20471;-89
2021/03/15 05:34:20;;;;;;;13.82;1.50;;;;;;;;;;1987819;29;20448;-89
2021/03/15 05:35:24;;;;;;;9.75;2.08;;;;;;;;;;1979749;30;20557;-89
2021/03/15 05:36:27;;;;;;;12.55;1.55;;;;;;;;;;1980993;30;20451;-89
2021/03/15 05:37:28;;;;;;;10.88;1.92;;;;;;;;;;1986011;29;20425;-88
2021/03/15 05:38:45;;;;;;;14.10;1.70;;;;;;;;;;1988208;29;20429;-89
2021/03/15 05:39:48;;;;;;;11.60;1.77;;;;;;;;;;1980844;30;20473;-89
2021/03/15 05:40:53;;;;;;;12.77;2.20;;;;;;;;;;1983092;30;20426;-89
2021/03/15 05:42:34;;;;;;;10.35;2.08;;;;;;;;;;1987187;30;20429;-88
2021/03/15 05:44:12;;;;;;;12.80;1.80;;;;;;;;;;1992182;29;20448;-88
2021/03/15 05:45:48;;;;;;;12.48;2.20;;;;;;;;;;1986689;30;20423;-88
2021/03/15 05:47:08;;;;;;;13.07;2.10;;;;;;;;;;1991678;29;20424;-88
2021/03/15 05:48:41;;;;;;;12.73;1.63;;;;;;;;;;1991102;29;20417;-88
2021/03/15 05:50:04;;;;;;;13.20;2.00;;;;;;;;;;1992454;29;20445;-89
2021/03/15 05:51:43;;;;;;;16.42;2.33;;;;;;;;;;1992838;29;20465;-88
2021/03/15 05:53:07;;;;;;;13.32;2.90;;;;;;;;;;1985563;30;20423;-88
2021/03/15 05:54:12;;;;;;;14.88;2.25;;;;;;;;;;1986697;29;20941;-90
2021/03/15 05:55:53;;;;;;;16.13;1.95;;;;;;;;;;1987509;29;20572;-89
2021/03/15 05:56:57;;;;;;;16.05;2.15;;;;;;;;;;1985915;29;20580;-88
2021/03/15 05:58:32;;;;;;;17.40;2.40;;;;;;;;;;1993265;29;20516;-88
2021/03/15 06:00:01;;;;;;;20.40;2.95;;;;;;;;;;1983007;29;20470;-88
2021/03/15 06:01:44;;;;;;;13.68;2.40;;;;;;;;;;1987330;29;20960;-88
2021/03/15 06:03:17;;;;;;;17.25;2.35;;;;;;;;;;1976362;30;20509;-86
2021/03/15 06:04:58;;;;;;;20.90;3.15;;;;;;;;;;1973964;30;20484;-88
2021/03/15 06:06:07;;;;;;;13.93;2.33;;;;;;;;;;1982862;30;20659;-86
2021/03/15 06:07:12;;;;;;;24.52;3.67;;;;;;;;;;1990282;29;20421;-85
2021/03/15 06:08:22;;;;;;;19.77;2.83;;;;;;;;;;1988141;29;20977;-87
2021/03/15 06:09:37;;;;;;;20.98;2.63;;;;;;;;;;1980460;30;20525;-88
2021/03/15 06:10:51;;;;;;;23.25;3.28;;;;;;;;;;1979837;29;20849;-89
2021/03/15 06:12:03;;;;;;;22.45;2.30;;;;;;;;;;1987813;29;20448;-90
2021/03/15 06:13:15;;;;;;;22.83;3.17;;;;;;;;;;1987563;29;20417;-89
2021/03/15 06:14:17;;;;;;;20.15;2.85;;;;;;;;;;1987233;29;20956;-89
2021/03/15 06:15:35;;;;;;;15.18;2.20;;;;;;;;;;1975821;30;20528;-87
2021/03/15 06:16:36;;;;;;;19.40;2.67;;;;;;;;;;1981421;30;20432;-89
2021/03/15 06:17:42;;;;;;;25.42;4.07;;;;;;;;;;1992582;29;20425;-89
2021/03/15 06:18:44;;;;;;;17.58;2.42;;;;;;;;;;1992817;29;20429;-88
2021/03/15 06:19:47;;;;;;;21.95;2.67;;;;;;;;;;1993164;29;20492;-88
2021/03/15 06:20:49;;;;;;;18.55;3.13;;;;;;;;;;1983994;30;20434;-88
2021/03/15 06:21:52;;;;;;;24.08;3.63;;;;;;;;;;1983722;29;20507;-88
2021/03/15 06:22:55;;;;;;;22.75;2.55;;;;;;;;;;1993068;29;20436;-90
2021/03/15 06:24:02;;;;;;;21.70;3.35;;;;;;;;;;1994559;29;20413;-87
2021/03/15 06:25:05;;;;;;;17.95;3.22;;;;;;;;;;1990700;29;20433;-90
2021/03/15 06:26:08;;;;;;;21.85;3.80;;;;;;;;;;1987529;30;20454;-88
2021/03/15 06:27:10;;;;;;;20.25;2.95;;;;;;;;;;1988237;29;20422;-87
2021/03/15 06:28:12;;;;;;;23.13;3.63;;;;;;;;;;1989138;29;20447;-89
2021/03/15 06:29:21;;;;;;;22.85;2.92;;;;;;;;;;1988757;30;20486;-88
2021/03/15 06:30:27;;;;;;;21.58;2.60;;;;;;;;;;1981528;29;20451;-88
2021/03/15 06:31:32;;;;;;;20.38;3.00;;;;;;;;;;1977796;29;20474;-88
2021/03/15 06:32:34;;;;;;;16.67;2.60;;;;;;;;;;1991430;29;20497;-87
2021/03/15 06:33:36;;;;;;;26.48;3.65;;;;;;;;;;1982095;30;20420;-88
2021/03/15 06:34:41;;;;;;;19.80;3.60;;;;;;;;;;1981950;29;20440;-88
2021/03/15 06:35:45;;;;;;;28.05;3.35;;;;;;;;;;1977326;30;20495;-89
2021/03/15 06:36:47;;;;;;;21.60;2.95;;;;;;;;;;1976069;30;20432;-89